Time;durP1;ratioP1;P1;durP2;ratioP2;P2;SDS_P1;SDS_P2;PMS_P1;PMS_P2;Temp;Humidity;BMP_temperature;BMP_pressure;BME280_temperature;BME280_humidity;BME280_pressure;Samples;Min_cycle;Max_cycle;Signal;HPM_P1;HPM_P2
2023/04/06 00:01:13;;;;;;;;;;;;;;;2.17;83.15;96897.56;110593;1243;70426;-77
2023/04/06 00:03:44;;;;;;;;;;;;;;;2.16;83.17;96897.95;110607;1241;69510;-77
2023/04/06 00:06:14;;;;;;;;;;;;;;;2.09;83.00;96895.36;110624;1238;69834;-77
2023/04/06 00:08:45;;;;;;;;;;;;;;;2.12;83.50;96895.59;110630;1243;59696;-77
2023/04/06 00:11:16;;;;;;;;;;;;;;;2.13;83.38;96889.71;110645;1240;59662;-77
2023/04/06 00:13:46;;;;;;;;;;;;;;;2.12;83.51;96888.18;110314;1238;71377;-78
2023/04/06 00:16:18;;;;;;;;;;;;;;;2.12;83.87;96886.80;110643;1246;68462;-77
2023/04/06 00:18:50;;;;;;;;;;;;;;;2.11;84.44;96885.51;110570;1241;68456;-77
2023/04/06 00:21:20;;;;;;;;;;;;;;;2.09;83.95;96881.64;110500;1242;59801;-77
2023/04/06 00:23:50;;;;;;;;;;;;;;;2.07;83.67;96882.24;110559;1241;59599;-77
2023/04/06 00:26:20;;;;;;;;;;;;;;;2.08;84.20;96883.56;110574;1241;70532;-77
2023/04/06 00:28:54;;;;;;;;;;;;;;;2.09;83.98;96881.30;110212;1245;69266;-79
2023/04/06 00:31:26;;;;;;;;;;;;;;;2.08;84.54;96876.52;110309;1241;69479;-79
2023/04/06 00:33:58;;;;;;;;;;;;;;;2.08;84.41;96873.95;110423;1247;59694;-76
2023/04/06 00:36:30;;;;;;;;;;;;;;;2.09;84.23;96877.36;110452;1241;59695;-76
2023/04/06 00:39:02;;;;;;;;;;;;;;;2.08;84.87;96874.11;110659;1241;70678;-76
2023/04/06 00:41:35;;;;;;;;;;;;;;;2.09;85.13;96871.34;110627;1241;69256;-77
2023/04/06 00:44:07;;;;;;;;;;;;;;;2.09;85.23;96866.88;110615;1240;68568;-77
2023/04/06 00:46:37;;;;;;;;;;;;;;;2.06;86.85;96863.35;110609;1241;59689;-77
2023/04/06 00:49:07;;;;;;;;;;;;;;;2.02;86.02;96859.91;110615;1244;59666;-77
2023/04/06 00:51:38;;;;;;;;;;;;;;;1.99;86.79;96859.24;110589;1242;71402;-77
2023/04/06 00:54:10;;;;;;;;;;;;;;;1.96;86.69;96858.02;110521;1241;68674;-78
2023/04/06 00:56:43;;;;;;;;;;;;;;;1.92;86.58;96854.74;110292;1246;69843;-76
2023/04/06 00:59:15;;;;;;;;;;;;;;;1.81;87.88;96851.12;110200;1243;59714;-79
2023/04/06 01:01:48;;;;;;;;;;;;;;;1.77;87.90;96845.50;110242;1244;59784;-78
2023/04/06 01:04:30;;;;;;;;;;;;;;;1.75;87.53;96844.52;110218;1241;71667;-78
2023/04/06 01:07:02;;;;;;;;;;;;;;;1.73;87.39;96843.78;110233;1243;68564;-78
2023/04/06 01:09:40;;;;;;;;;;;;;;;1.67;87.88;96839.40;110181;1242;69682;-78
2023/04/06 01:12:19;;;;;;;;;;;;;;;1.65;88.83;96833.54;110550;1240;59686;-78
2023/04/06 01:14:49;;;;;;;;;;;;;;;1.64;88.70;96833.75;110299;1242;59753;-77
2023/04/06 01:17:19;;;;;;;;;;;;;;;1.58;88.41;96830.21;110291;1241;71460;-78
2023/04/06 01:19:53;;;;;;;;;;;;;;;1.58;88.49;96830.38;110494;1249;68219;-77
2023/04/06 01:22:30;;;;;;;;;;;;;;;1.57;88.47;96828.20;110319;1242;69622;-77
2023/04/06 01:25:05;;;;;;;;;;;;;;;1.50;89.81;96825.61;110545;1241;59755;-77
2023/04/06 01:27:56;;;;;;;;;;;;;;;1.45;89.55;96820.35;110429;1242;59700;-77
2023/04/06 01:30:43;;;;;;;;;;;;;;;1.43;89.27;96825.40;110166;1244;71428;-77
2023/04/06 01:33:26;;;;;;;;;;;;;;;1.41;89.36;96823.46;110331;1242;69813;-77
2023/04/06 01:36:09;;;;;;;;;;;;;;;1.42;88.81;96820.48;110150;1244;69227;-77
2023/04/06 01:38:39;;;;;;;;;;;;;;;1.37;88.83;96816.09;110203;1243;59688;-77
2023/04/06 01:41:11;;;;;;;;;;;;;;;1.33;89.19;96815.57;110148;1243;59612;-77
2023/04/06 01:43:54;;;;;;;;;;;;;;;1.29;89.77;96813.66;110333;1240;71519;-77
2023/04/06 01:46:28;;;;;;;;;;;;;;;1.22;89.88;96808.16;110298;1242;69342;-77
2023/04/06 01:49:01;;;;;;;;;;;;;;;1.25;89.42;96807.70;110321;1242;69266;-77
2023/04/06 01:51:38;;;;;;;;;;;;;;;1.25;89.81;96806.98;110361;1248;59744;-76
2023/04/06 01:54:10;;;;;;;;;;;;;;;1.17;90.24;96803.23;110220;1241;59666;-77
2023/04/06 01:56:59;;;;;;;;;;;;;;;1.08;90.70;96801.60;110307;1240;71765;-77
2023/04/06 01:59:48;;;;;;;;;;;;;;;1.05;91.60;96802.92;110183;1241;69635;-77
2023/04/06 02:02:39;;;;;;;;;;;;;;;0.97;91.61;96797.23;110269;1242;69621;-77
2023/04/06 02:05:16;;;;;;;;;;;;;;;0.97;91.69;96801.20;110356;1240;59701;-77
2023/04/06 02:07:47;;;;;;;;;;;;;;;0.96;91.80;96805.86;110197;1242;59701;-77
2023/04/06 02:10:20;;;;;;;;;;;;;;;0.87;91.39;96796.19;110213;1238;71556;-76
2023/04/06 02:12:51;;;;;;;;;;;;;;;0.81;91.47;96804.67;110316;1242;69354;-77
2023/04/06 02:15:26;;;;;;;;;;;;;;;0.67;92.11;96807.86;110282;1242;68589;-77
2023/04/06 02:17:57;;;;;;;;;;;;;;;0.65;92.42;96806.58;110584;1242;59686;-76
2023/04/06 02:20:27;;;;;;;;;;;;;;;0.59;93.01;96806.13;110243;1243;59678;-76
2023/04/06 02:23:00;;;;;;;;;;;;;;;0.49;93.71;96805.02;110293;1238;71444;-75
2023/04/06 02:25:30;;;;;;;;;;;;;;;0.40;94.22;96802.44;110635;1238;68367;-77
2023/04/06 02:28:02;;;;;;;;;;;;;;;0.33;95.00;96806.88;110595;1241;69111;-76
2023/04/06 02:30:33;;;;;;;;;;;;;;;0.25;95.34;96804.98;110509;1242;59664;-76
2023/04/06 02:33:03;;;;;;;;;;;;;;;0.12;96.15;96803.46;110271;1241;59749;-76
2023/04/06 02:35:40;;;;;;;;;;;;;;;0.12;95.79;96801.56;110598;1240;70614;-74
2023/04/06 02:38:11;;;;;;;;;;;;;;;0.07;96.32;96801.12;110453;1241;68459;-77
2023/04/06 02:40:42;;;;;;;;;;;;;;;0.08;96.23;96804.48;110321;1241;69340;-76
2023/04/06 02:43:23;;;;;;;;;;;;;;;-0.12;97.08;96800.64;110400;1242;59679;-76
2023/04/06 02:45:58;;;;;;;;;;;;;;;-0.18;98.22;96803.46;110234;1244;59665;-76
2023/04/06 02:48:30;;;;;;;;;;;;;;;-0.17;98.73;96803.42;110348;1242;70460;-76
2023/04/06 02:51:01;;;;;;;;;;;;;;;-0.18;99.15;96802.13;110515;1240;68507;-77
2023/04/06 02:53:32;;;;;;;;;;;;;;;-0.21;99.12;96804.78;110587;1238;69323;-76
2023/04/06 02:56:02;;;;;;;;;;;;;;;-0.26;99.49;96803.78;110411;1243;59692;-77
2023/04/06 02:58:40;;;;;;;;;;;;;;;-0.35;100.00;96801.89;110469;1241;59677;-77
2023/04/06 03:01:09;;;;;;;;;;;;;;;-0.38;100.00;96804.59;110367;1244;72472;-76
2023/04/06 03:03:39;;;;;;;;;;;;;;;-0.39;100.00;96802.75;110408;1238;67933;-76
2023/04/06 03:06:14;;;;;;;;;;;;;;;-0.42;100.00;96803.93;110612;1240;68655;-77
2023/04/06 03:08:45;;;;;;;;;;;;;;;-0.54;100.00;96804.02;110288;1238;59747;-77
2023/04/06 03:11:15;;;;;;;;;;;;;;;-0.61;100.00;96802.73;110474;1245;59650;-78
2023/04/06 03:13:46;;;;;;;;;;;;;;;-0.63;100.00;96802.82;110231;1243;70624;-77
2023/04/06 03:16:16;;;;;;;;;;;;;;;-0.70;100.00;96798.31;110495;1243;69507;-76
2023/04/06 03:18:48;;;;;;;;;;;;;;;-0.77;100.00;96799.06;110561;1240;68574;-76
2023/04/06 03:21:19;;;;;;;;;;;;;;;-0.82;100.00;96795.00;110210;1241;59771;-76
2023/04/06 03:23:52;;;;;;;;;;;;;;;-0.82;100.00;96800.97;110557;1240;59680;-76
2023/04/06 03:26:22;;;;;;;;;;;;;;;-0.82;100.00;96798.56;110659;1241;71322;-76
2023/04/06 03:28:53;;;;;;;;;;;;;;;-0.86;100.00;96799.05;110647;1240;69183;-75
2023/04/06 03:31:26;;;;;;;;;;;;;;;-0.96;100.00;96798.95;110614;1238;69729;-76
2023/04/06 03:34:00;;;;;;;;;;;;;;;-0.92;100.00;96798.11;110505;1241;59744;-76
2023/04/06 03:36:34;;;;;;;;;;;;;;;-0.91;100.00;96802.17;110565;1242;59667;-76
2023/04/06 03:39:05;;;;;;;;;;;;;;;-1.00;100.00;96794.10;110190;1241;71875;-76
2023/04/06 03:41:36;;;;;;;;;;;;;;;-0.99;100.00;96795.27;110509;1240;69232;-76
2023/04/06 03:44:26;;;;;;;;;;;;;;;-1.04;100.00;96794.77;110617;1241;68496;-76
2023/04/06 03:46:56;;;;;;;;;;;;;;;-1.02;100.00;96797.59;110635;1241;59697;-76
2023/04/06 03:49:27;;;;;;;;;;;;;;;-1.01;100.00;96798.09;110214;1243;59735;-76
2023/04/06 03:51:57;;;;;;;;;;;;;;;-1.01;100.00;96799.28;110478;1241;71121;-76
2023/04/06 03:54:27;;;;;;;;;;;;;;;-1.04;100.00;96798.85;110608;1241;69067;-76
2023/04/06 03:56:57;;;;;;;;;;;;;;;-1.10;100.00;96801.28;110374;1241;69410;-77
2023/04/06 03:59:28;;;;;;;;;;;;;;;-1.10;100.00;96797.37;110614;1241;59656;-76
2023/04/06 04:01:58;;;;;;;;;;;;;;;-1.09;100.00;96799.70;110607;1241;59740;-76
2023/04/06 04:04:28;;;;;;;;;;;;;;;-1.09;100.00;96799.91;110591;1242;70291;-76
2023/04/06 04:06:58;;;;;;;;;;;;;;;-1.09;100.00;96805.70;110179;1245;69894;-76
2023/04/06 04:09:27;;;;;;;;;;;;;;;-1.12;100.00;96806.34;110582;1238;68871;-76
2023/04/06 04:11:57;;;;;;;;;;;;;;;-1.11;100.00;96804.24;110298;1240;59707;-76
2023/04/06 04:14:26;;;;;;;;;;;;;;;-1.09;100.00;96805.89;110223;1243;59718;-77
2023/04/06 04:16:56;;;;;;;;;;;;;;;-1.10;100.00;96806.95;110241;1245;71233;-76
2023/04/06 04:19:26;;;;;;;;;;;;;;;-1.11;100.00;96811.45;110588;1241;69247;-76
2023/04/06 04:21:56;;;;;;;;;;;;;;;-1.13;100.00;96805.54;110188;1241;68563;-75
2023/04/06 04:24:31;;;;;;;;;;;;;;;-1.11;100.00;96808.55;110219;1241;59669;-77
2023/04/06 04:27:01;;;;;;;;;;;;;;;-1.18;100.00;96808.24;110349;1242;59731;-77
2023/04/06 04:29:32;;;;;;;;;;;;;;;-1.22;100.00;96808.75;110244;1239;71282;-76
2023/04/06 04:32:04;;;;;;;;;;;;;;;-1.23;100.00;96811.34;110646;1240;69801;-77
2023/04/06 04:34:34;;;;;;;;;;;;;;;-1.26;100.00;96808.70;110353;1242;69886;-77
2023/04/06 04:37:04;;;;;;;;;;;;;;;-1.22;100.00;96809.42;110178;1245;59740;-77
2023/04/06 04:39:47;;;;;;;;;;;;;;;-1.23;100.00;96810.33;110546;1241;59663;-77
2023/04/06 04:42:17;;;;;;;;;;;;;;;-1.21;100.00;96807.87;110488;1241;71886;-75
2023/04/06 04:44:50;;;;;;;;;;;;;;;-1.18;100.00;96807.58;110218;1244;69245;-76
2023/04/06 04:47:30;;;;;;;;;;;;;;;-1.16;100.00;96808.35;110587;1241;69821;-75
2023/04/06 04:50:00;;;;;;;;;;;;;;;-1.16;100.00;96807.34;110303;1240;59692;-76
2023/04/06 04:52:30;;;;;;;;;;;;;;;-1.21;100.00;96810.92;110228;1244;59738;-73
2023/04/06 04:55:09;;;;;;;;;;;;;;;-1.25;100.00;96806.61;110545;1240;71022;-76
2023/04/06 04:57:39;;;;;;;;;;;;;;;-1.26;100.00;96805.30;110200;1245;70215;-76
2023/04/06 05:00:09;;;;;;;;;;;;;;;-1.26;100.00;96807.34;110212;1244;68563;-77
2023/04/06 05:02:39;;;;;;;;;;;;;;;-1.26;100.00;96808.21;110494;1241;59690;-76
2023/04/06 05:05:21;;;;;;;;;;;;;;;-1.28;100.00;96804.70;110584;1241;59748;-76
2023/04/06 05:07:51;;;;;;;;;;;;;;;-1.22;100.00;96803.12;110316;1238;71308;-76
2023/04/06 05:10:30;;;;;;;;;;;;;;;-1.16;100.00;96805.29;110561;1241;68720;-77
2023/04/06 05:13:00;;;;;;;;;;;;;;;-1.13;100.00;96804.84;110523;1240;68166;-76
2023/04/06 05:15:30;;;;;;;;;;;;;;;-1.16;100.00;96802.55;110634;1240;59702;-76
2023/04/06 05:18:06;;;;;;;;;;;;;;;-1.17;100.00;96802.91;110202;1243;59659;-76
2023/04/06 05:20:35;;;;;;;;;;;;;;;-1.21;100.00;96800.00;109981;1241;724270;-76
2023/04/06 05:23:04;;;;;;;;;;;;;;;-1.27;100.00;96795.95;110346;1240;68462;-76
2023/04/06 05:25:35;;;;;;;;;;;;;;;-1.21;100.00;96794.19;110288;1242;68524;-76
2023/04/06 05:28:14;;;;;;;;;;;;;;;-1.24;100.00;96797.87;110585;1238;59692;-76
2023/04/06 05:30:43;;;;;;;;;;;;;;;-1.21;100.00;96795.05;110607;1241;59703;-75
2023/04/06 05:33:12;;;;;;;;;;;;;;;-1.25;100.00;96797.55;110588;1241;70631;-77
2023/04/06 05:36:03;;;;;;;;;;;;;;;-1.26;100.00;96790.96;110461;1239;68720;-75
2023/04/06 05:38:33;;;;;;;;;;;;;;;-1.32;100.00;96788.25;110316;1242;69099;-76
2023/04/06 05:41:08;;;;;;;;;;;;;;;-1.32;100.00;96789.27;110547;1241;60001;-77
2023/04/06 05:43:37;;;;;;;;;;;;;;;-1.29;100.00;96791.20;110661;1241;59622;-76
2023/04/06 05:46:05;;;;;;;;;;;;;;;-1.14;100.00;96792.38;110406;1238;70619;-76
2023/04/06 05:48:34;;;;;;;;;;;;;;;-1.09;100.00;96786.38;110520;1241;69485;-76
2023/04/06 05:51:06;;;;;;;;;;;;;;;-1.17;100.00;96785.98;110486;1240;69250;-76
2023/04/06 05:53:42;;;;;;;;;;;;;;;-1.16;100.00;96790.42;110530;1241;59750;-76
2023/04/06 05:56:11;;;;;;;;;;;;;;;-1.18;100.00;96787.59;110193;1239;59750;-76
2023/04/06 05:58:41;;;;;;;;;;;;;;;-1.18;100.00;96785.85;110355;1241;71388;-76
2023/04/06 06:01:11;;;;;;;;;;;;;;;-1.10;100.00;96780.62;110511;1243;69730;-76
2023/04/06 06:03:42;;;;;;;;;;;;;;;-1.06;100.00;96780.62;110363;1243;69308;-76
2023/04/06 06:06:12;;;;;;;;;;;;;;;-1.08;100.00;96778.16;110335;1242;59682;-76
2023/04/06 06:09:03;;;;;;;;;;;;;;;-1.19;100.00;96780.93;110466;1241;59705;-76
2023/04/06 06:11:37;;;;;;;;;;;;;;;-1.05;100.00;96777.02;110200;1242;71757;-76
2023/04/06 06:14:06;;;;;;;;;;;;;;;-0.93;100.00;96783.74;110280;1241;69853;-75
2023/04/06 06:16:37;;;;;;;;;;;;;;;-0.85;100.00;96783.29;110214;1244;69843;-75
2023/04/06 06:19:07;;;;;;;;;;;;;;;-1.01;100.00;96784.22;110545;1241;59679;-75
2023/04/06 06:21:37;;;;;;;;;;;;;;;-1.02;100.00;96783.38;110592;1241;59695;-75
2023/04/06 06:24:07;;;;;;;;;;;;;;;-1.00;100.00;96781.28;110570;1241;71476;-75
2023/04/06 06:26:37;;;;;;;;;;;;;;;-0.95;100.00;96778.73;110634;1248;69657;-74
2023/04/06 06:29:06;;;;;;;;;;;;;;;-0.90;100.00;96780.59;110330;1241;68263;-76
2023/04/06 06:31:37;;;;;;;;;;;;;;;-0.85;100.00;96778.84;110588;1238;59746;-76
2023/04/06 06:34:06;;;;;;;;;;;;;;;-0.74;100.00;96780.12;110395;1238;59718;-76
2023/04/06 06:36:36;;;;;;;;;;;;;;;-0.70;100.00;96775.88;110609;1240;71601;-75
2023/04/06 06:39:07;;;;;;;;;;;;;;;-0.73;100.00;96772.40;110613;1241;69543;-74
2023/04/06 06:41:37;;;;;;;;;;;;;;;-0.57;100.00;96775.52;110608;1238;68670;-75
2023/04/06 06:44:07;;;;;;;;;;;;;;;-0.60;100.00;96774.98;110664;1239;59734;-74
2023/04/06 06:46:36;;;;;;;;;;;;;;;-0.62;100.00;96773.67;110656;1241;59689;-74
2023/04/06 06:49:04;;;;;;;;;;;;;;;-0.55;100.00;96775.44;110373;1242;71172;-74
2023/04/06 06:51:33;;;;;;;;;;;;;;;-0.53;100.00;96775.58;110627;1240;69121;-75
2023/04/06 06:54:02;;;;;;;;;;;;;;;-0.60;100.00;96777.70;110640;1238;69195;-74
2023/04/06 06:56:31;;;;;;;;;;;;;;;-0.61;100.00;96777.06;110596;1241;59734;-74
2023/04/06 06:58:59;;;;;;;;;;;;;;;-0.49;100.00;96779.52;110152;1244;59745;-74
2023/04/06 07:01:28;;;;;;;;;;;;;;;-0.55;100.00;96777.86;110469;1241;70649;-75
2023/04/06 07:03:57;;;;;;;;;;;;;;;-0.48;100.00;96780.67;110311;1241;69282;-74
2023/04/06 07:06:26;;;;;;;;;;;;;;;-0.51;100.00;96781.12;110463;1238;69258;-75
2023/04/06 07:08:54;;;;;;;;;;;;;;;-0.52;100.00;96780.81;110275;1242;59728;-74
2023/04/06 07:11:24;;;;;;;;;;;;;;;-0.23;100.00;96781.40;110395;1238;59705;-74
2023/04/06 07:13:53;;;;;;;;;;;;;;;-0.08;100.00;96778.41;110651;1239;70886;-74
2023/04/06 07:16:22;;;;;;;;;;;;;;;-0.01;100.00;96778.99;110383;1240;68732;-76
2023/04/06 07:18:51;;;;;;;;;;;;;;;0.00;100.00;96776.54;110404;1240;68534;-75
2023/04/06 07:21:20;;;;;;;;;;;;;;;-0.03;99.78;96776.14;110532;1239;59708;-75
2023/04/06 07:23:50;;;;;;;;;;;;;;;0.12;99.98;96776.21;110470;1241;59723;-76
2023/04/06 07:26:19;;;;;;;;;;;;;;;0.29;99.76;96775.00;110495;1242;71384;-78
2023/04/06 07:28:47;;;;;;;;;;;;;;;0.37;98.49;96772.92;110537;1240;69215;-76
2023/04/06 07:31:16;;;;;;;;;;;;;;;0.31;97.69;96772.34;110383;1241;69853;-76
2023/04/06 07:33:46;;;;;;;;;;;;;;;0.57;97.34;96770.23;110163;1243;59747;-76
2023/04/06 07:36:15;;;;;;;;;;;;;;;0.61;96.68;96768.98;110438;1241;59729;-76
2023/04/06 07:38:45;;;;;;;;;;;;;;;0.61;96.60;96774.15;110369;1241;71485;-77
2023/04/06 07:41:14;;;;;;;;;;;;;;;0.41;96.32;96769.17;110182;1243;68542;-76
2023/04/06 07:43:43;;;;;;;;;;;;;;;0.56;96.56;96770.77;110523;1241;70201;-76
2023/04/06 07:46:12;;;;;;;;;;;;;;;0.51;97.42;96769.79;110407;1239;59709;-76
2023/04/06 07:48:41;;;;;;;;;;;;;;;0.47;96.70;96772.48;110444;1241;59694;-76
2023/04/06 07:51:14;;;;;;;;;;;;;;;0.42;97.06;96771.38;110428;1241;72020;-76
2023/04/06 07:53:44;;;;;;;;;;;;;;;0.36;96.21;96773.86;110405;1242;69117;-77
2023/04/06 07:56:12;;;;;;;;;;;;;;;0.48;96.25;96771.63;110477;1241;68333;-77
2023/04/06 07:58:41;;;;;;;;;;;;;;;0.57;94.78;96767.80;110335;1242;59748;-78
2023/04/06 08:01:10;;;;;;;;;;;;;;;0.79;94.74;96768.23;110354;1241;60002;-76
2023/04/06 08:03:39;;;;;;;;;;;;;;;0.95;94.46;96769.58;110338;1248;71838;-76
2023/04/06 08:06:09;;;;;;;;;;;;;;;0.81;92.94;96770.02;110503;1241;69211;-75
2023/04/06 08:08:37;;;;;;;;;;;;;;;0.43;93.11;96770.80;110542;1241;68502;-76
2023/04/06 08:11:06;;;;;;;;;;;;;;;0.60;93.65;96774.17;110337;1242;59746;-76
2023/04/06 08:13:35;;;;;;;;;;;;;;;0.73;93.32;96777.23;110422;1241;59747;-75
2023/04/06 08:16:04;;;;;;;;;;;;;;;0.85;92.51;96775.65;110358;1241;70673;-75
2023/04/06 08:18:33;;;;;;;;;;;;;;;0.99;93.18;96773.14;110552;1239;68494;-75
2023/04/06 08:21:02;;;;;;;;;;;;;;;1.05;92.10;96773.79;110478;1240;68552;-76
2023/04/06 08:23:31;;;;;;;;;;;;;;;0.65;93.28;96776.36;110618;1241;59800;-76
2023/04/06 08:25:59;;;;;;;;;;;;;;;0.52;91.98;96772.45;110537;1241;59758;-77
2023/04/06 08:28:29;;;;;;;;;;;;;;;0.59;92.72;96778.34;110549;1241;71259;-76
2023/04/06 08:30:58;;;;;;;;;;;;;;;0.73;94.04;96778.95;110553;1241;68588;-77
2023/04/06 08:33:26;;;;;;;;;;;;;;;0.84;93.45;96775.71;110935;1241;69892;-77
2023/04/06 08:35:55;;;;;;;;;;;;;;;0.98;91.72;96773.19;111217;1241;59735;-78
2023/04/06 08:38:25;;;;;;;;;;;;;;;1.07;91.14;96783.27;110790;1241;59672;-77
2023/04/06 08:40:53;;;;;;;;;;;;;;;1.04;90.74;96779.95;110532;1242;71354;-77
2023/04/06 08:43:23;;;;;;;;;;;;;;;1.14;91.64;96783.64;110459;1241;69839;-76
2023/04/06 08:45:52;;;;;;;;;;;;;;;1.20;91.27;96785.45;110512;1241;69210;-76
2023/04/06 08:48:20;;;;;;;;;;;;;;;1.29;90.95;96781.09;110525;1241;59657;-76
2023/04/06 08:50:49;;;;;;;;;;;;;;;1.33;89.88;96779.02;110464;1241;59701;-76
2023/04/06 08:53:18;;;;;;;;;;;;;;;1.29;89.47;96781.05;110493;1240;72089;-76
2023/04/06 08:55:49;;;;;;;;;;;;;;;1.16;89.53;96778.91;110544;1241;69819;-76
2023/04/06 08:58:18;;;;;;;;;;;;;;;0.88;89.80;96777.59;110518;1242;69542;-76
2023/04/06 09:01:11;;;;;;;;;;;;;;;0.94;90.38;96780.23;110568;1241;59602;-76
2023/04/06 09:03:40;;;;;;;;;;;;;;;0.92;89.28;96775.70;110665;1241;59770;-77
2023/04/06 09:06:11;;;;;;;;;;;;;;;0.62;88.50;96780.77;110495;1241;70746;-77
2023/04/06 09:08:41;;;;;;;;;;;;;;;0.66;89.97;96780.09;110571;1241;70302;-76
2023/04/06 09:11:10;;;;;;;;;;;;;;;0.67;89.72;96780.05;110536;1241;69264;-77
2023/04/06 09:13:47;;;;;;;;;;;;;;;0.65;88.77;96783.08;110522;1241;59741;-77
2023/04/06 09:16:16;;;;;;;;;;;;;;;0.63;88.64;96778.67;110568;1241;59683;-77
2023/04/06 09:18:45;;;;;;;;;;;;;;;0.71;89.55;96783.13;110573;1241;71969;-76
2023/04/06 09:21:16;;;;;;;;;;;;;;;0.48;89.96;96784.66;110537;1241;69203;-77
2023/04/06 09:23:45;;;;;;;;;;;;;;;0.40;91.07;96784.64;110521;1241;69156;-76
2023/04/06 09:26:15;;;;;;;;;;;;;;;0.51;91.91;96785.75;110542;1241;59825;-76
2023/04/06 09:28:53;;;;;;;;;;;;;;;0.55;91.60;96787.25;110570;1241;59678;-76
2023/04/06 09:31:22;;;;;;;;;;;;;;;0.64;91.59;96788.10;110664;1241;72041;-76
2023/04/06 09:33:54;;;;;;;;;;;;;;;0.58;91.52;96785.59;110423;1241;69655;-76
2023/04/06 09:36:33;;;;;;;;;;;;;;;0.49;92.02;96784.08;110476;1241;70076;-77
2023/04/06 09:39:03;;;;;;;;;;;;;;;0.55;92.26;96787.64;110502;1242;59734;-76
2023/04/06 09:41:33;;;;;;;;;;;;;;;0.58;91.86;96784.39;110445;1241;59628;-76
2023/04/06 09:44:09;;;;;;;;;;;;;;;0.59;91.66;96780.57;110515;1241;71445;-76
2023/04/06 09:46:40;;;;;;;;;;;;;;;0.57;92.54;96781.02;110504;1239;68629;-75
2023/04/06 09:49:27;;;;;;;;;;;;;;;0.62;93.00;96787.16;110519;1241;69678;-75
2023/04/06 09:52:01;;;;;;;;;;;;;;;0.58;92.50;96783.89;110440;1241;59648;-76
2023/04/06 09:54:31;;;;;;;;;;;;;;;0.47;91.88;96780.24;110405;1241;59814;-76
2023/04/06 09:57:12;;;;;;;;;;;;;;;0.63;93.05;96786.09;110503;1240;71356;-75
2023/04/06 09:59:48;;;;;;;;;;;;;;;0.82;91.59;96784.54;110476;1239;69101;-75
2023/04/06 10:02:37;;;;;;;;;;;;;;;0.89;89.83;96779.63;110298;1241;69132;-76
2023/04/06 10:05:09;;;;;;;;;;;;;;;1.17;89.86;96783.67;109941;1241;59758;-75
2023/04/06 10:07:40;;;;;;;;;;;;;;;1.32;88.74;96783.86;110462;1241;59666;-76
2023/04/06 10:10:27;;;;;;;;;;;;;;;1.53;89.03;96785.94;110547;1240;70906;-75
2023/04/06 10:12:59;;;;;;;;;;;;;;;1.75;88.87;96786.81;110547;1239;69611;-76
2023/04/06 10:15:29;;;;;;;;;;;;;;;1.91;88.43;96787.27;110572;1242;69164;-75
2023/04/06 10:17:59;;;;;;;;;;;;;;;1.64;87.37;96788.73;110486;1239;59691;-75
2023/04/06 10:20:33;;;;;;;;;;;;;;;1.59;88.88;96789.46;110373;1241;59715;-75
2023/04/06 10:23:07;;;;;;;;;;;;;;;1.52;86.76;96790.83;110388;1241;71343;-75
2023/04/06 10:25:36;;;;;;;;;;;;;;;1.50;86.03;96788.02;110420;1239;69233;-76
2023/04/06 10:28:06;;;;;;;;;;;;;;;1.48;86.66;96789.95;110595;1241;68321;-75
2023/04/06 10:30:35;;;;;;;;;;;;;;;1.53;87.51;96788.36;110566;1241;59667;-75
2023/04/06 10:33:14;;;;;;;;;;;;;;;1.62;86.36;96789.17;110545;1242;59595;-75
2023/04/06 10:35:43;;;;;;;;;;;;;;;1.34;87.39;96787.87;110473;1241;71990;-75
2023/04/06 10:38:14;;;;;;;;;;;;;;;1.28;87.28;96784.88;110544;1241;68372;-75
2023/04/06 10:40:42;;;;;;;;;;;;;;;1.27;87.92;96783.20;110460;1240;69269;-75
2023/04/06 10:43:21;;;;;;;;;;;;;;;1.52;87.11;96786.73;110513;1241;59744;-74
2023/04/06 10:45:55;;;;;;;;;;;;;;;1.70;86.14;96787.20;110548;1240;59702;-75
2023/04/06 10:48:25;;;;;;;;;;;;;;;1.89;86.29;96783.92;110560;1241;71765;-74
2023/04/06 10:50:53;;;;;;;;;;;;;;;2.00;85.03;96781.48;110544;1240;68529;-74
2023/04/06 10:53:23;;;;;;;;;;;;;;;2.15;84.90;96779.23;110447;1241;68872;-74
2023/04/06 10:55:53;;;;;;;;;;;;;;;2.25;84.58;96778.70;110480;1241;59741;-74
2023/04/06 10:58:24;;;;;;;;;;;;;;;2.05;82.47;96778.50;110521;1241;59734;-75
2023/04/06 11:00:54;;;;;;;;;;;;;;;1.83;82.92;96779.89;110418;1240;70617;-75
2023/04/06 11:03:23;;;;;;;;;;;;;;;1.58;84.76;96782.64;110447;1241;69227;-74
2023/04/06 11:05:51;;;;;;;;;;;;;;;1.46;84.86;96779.94;110462;1241;69476;-75
2023/04/06 11:08:27;;;;;;;;;;;;;;;1.57;87.43;96784.42;110428;1242;59740;-76
2023/04/06 11:11:15;;;;;;;;;;;;;;;1.77;86.34;96781.71;110206;1243;59712;-75
2023/04/06 11:13:43;;;;;;;;;;;;;;;1.79;85.38;96783.39;110442;1240;71390;-74
2023/04/06 11:16:13;;;;;;;;;;;;;;;1.77;84.50;96781.91;110384;1241;68991;-76
2023/04/06 11:18:48;;;;;;;;;;;;;;;1.66;85.53;96783.31;110407;1241;69081;-76
2023/04/06 11:21:17;;;;;;;;;;;;;;;1.75;85.70;96781.48;110400;1239;59657;-77
2023/04/06 11:23:46;;;;;;;;;;;;;;;1.67;84.23;96777.54;110445;1241;59722;-76
2023/04/06 11:26:14;;;;;;;;;;;;;;;1.71;84.34;96783.23;110492;1240;71942;-76
2023/04/06 11:28:44;;;;;;;;;;;;;;;1.72;84.75;96782.86;110578;1240;68812;-75
2023/04/06 11:31:12;;;;;;;;;;;;;;;1.58;83.47;96780.07;110542;1240;69083;-76
2023/04/06 11:33:41;;;;;;;;;;;;;;;1.56;84.72;96784.80;110588;1241;59744;-76
2023/04/06 11:36:10;;;;;;;;;;;;;;;1.28;85.57;96785.41;110560;1241;59669;-76
2023/04/06 11:38:41;;;;;;;;;;;;;;;1.06;86.49;96782.77;110540;1240;71422;-75
2023/04/06 11:41:10;;;;;;;;;;;;;;;0.97;86.25;96781.66;110427;1241;69225;-75
2023/04/06 11:43:45;;;;;;;;;;;;;;;0.89;86.92;96782.68;110400;1240;68744;-76
2023/04/06 11:46:17;;;;;;;;;;;;;;;0.87;87.81;96787.06;110450;1240;59664;-75
2023/04/06 11:48:46;;;;;;;;;;;;;;;0.86;89.42;96787.64;110442;1241;59673;-75
2023/04/06 11:51:22;;;;;;;;;;;;;;;0.86;89.67;96792.61;110244;1241;71242;-74
2023/04/06 11:53:51;;;;;;;;;;;;;;;0.89;89.36;96793.14;110396;1242;68748;-75
2023/04/06 11:56:23;;;;;;;;;;;;;;;0.69;90.59;96794.21;110314;1241;69054;-75
2023/04/06 11:58:54;;;;;;;;;;;;;;;0.77;92.01;96795.04;110328;1239;59702;-74
2023/04/06 12:01:23;;;;;;;;;;;;;;;0.95;92.40;96796.86;110361;1241;59695;-75
2023/04/06 12:03:52;;;;;;;;;;;;;;;1.10;91.22;96792.73;110484;1241;71949;-76
2023/04/06 12:06:23;;;;;;;;;;;;;;;1.12;91.46;96789.52;110582;1240;70000;-75
2023/04/06 12:08:51;;;;;;;;;;;;;;;1.18;91.47;96793.23;110504;1240;69144;-75
2023/04/06 12:11:22;;;;;;;;;;;;;;;1.33;91.08;96790.86;110466;1241;59694;-75
2023/04/06 12:13:50;;;;;;;;;;;;;;;1.50;89.64;96793.66;110459;1241;59627;-75
2023/04/06 12:16:19;;;;;;;;;;;;;;;1.59;89.69;96792.58;110525;1241;70938;-75
2023/04/06 12:18:48;;;;;;;;;;;;;;;1.41;89.65;96791.85;110546;1240;69179;-74
2023/04/06 12:21:17;;;;;;;;;;;;;;;1.46;90.43;96794.39;110528;1241;68350;-75
2023/04/06 12:23:46;;;;;;;;;;;;;;;1.53;90.95;96792.68;110499;1241;59676;-74
2023/04/06 12:26:15;;;;;;;;;;;;;;;1.58;90.27;96795.73;110456;1242;59694;-74
2023/04/06 12:28:44;;;;;;;;;;;;;;;1.52;90.79;96798.87;110499;1241;71136;-74
2023/04/06 12:31:23;;;;;;;;;;;;;;;1.54;91.51;96800.52;110527;1240;69176;-75
2023/04/06 12:33:52;;;;;;;;;;;;;;;1.55;90.42;96801.48;110353;1241;69681;-76
2023/04/06 12:36:21;;;;;;;;;;;;;;;1.55;89.83;96800.13;110323;1241;59747;-76
2023/04/06 12:38:50;;;;;;;;;;;;;;;1.36;88.46;96799.29;110417;1240;59700;-75
2023/04/06 12:41:19;;;;;;;;;;;;;;;1.38;89.89;96802.11;110415;1239;71195;-76
2023/04/06 12:43:51;;;;;;;;;;;;;;;1.32;91.45;96802.58;110419;1241;69675;-75
2023/04/06 12:46:20;;;;;;;;;;;;;;;1.34;91.02;96804.36;110421;1241;69200;-75
2023/04/06 12:48:49;;;;;;;;;;;;;;;1.20;91.26;96802.73;110554;1241;59759;-75
2023/04/06 12:51:17;;;;;;;;;;;;;;;1.09;91.51;96804.61;110444;1241;59602;-75
2023/04/06 12:53:46;;;;;;;;;;;;;;;0.95;92.42;96800.60;110433;1240;70513;-75
2023/04/06 12:56:17;;;;;;;;;;;;;;;0.95;93.87;96805.58;110539;1239;67647;-75
2023/04/06 12:58:45;;;;;;;;;;;;;;;1.06;92.70;96802.04;110446;1241;69078;-74
2023/04/06 13:01:14;;;;;;;;;;;;;;;1.01;93.31;96805.48;110458;1240;59731;-76
2023/04/06 13:03:44;;;;;;;;;;;;;;;1.08;93.19;96805.52;110569;1241;59669;-75